createdAt,value
2023-03-15T00:03:55.220Z,92297.12
2023-03-15T00:09:03.794Z,92299.08
2023-03-15T00:14:10.918Z,92303.67
2023-03-15T00:19:18.130Z,92320.36
2023-03-15T00:24:25.362Z,92322.67
2023-03-15T00:29:32.391Z,92315.20
2023-03-15T00:34:39.183Z,92319.33
2023-03-15T00:39:48.502Z,92321.20
2023-03-15T00:44:56.335Z,92316.04
2023-03-15T00:50:04.224Z,92325.79
2023-03-15T00:55:14.550Z,92337.97
2023-03-15T01:00:25.233Z,92338.31
2023-03-15T01:05:32.300Z,92363.09
2023-03-15T01:10:39.190Z,92365.73
2023-03-15T01:15:48.230Z,92370.67
2023-03-15T01:20:55.212Z,92365.30
2023-03-15T01:26:11.822Z,92378.69
2023-03-15T01:31:29.035Z,92375.45
2023-03-15T01:36:36.136Z,92380.39
2023-03-15T01:41:43.274Z,92392.30
2023-03-15T01:46:50.227Z,92390.48
2023-03-15T01:52:06.746Z,92390.00
2023-03-15T01:57:32.549Z,92394.61
2023-03-15T02:02:47.037Z,92389.26
2023-03-15T02:07:55.018Z,92383.42
2023-03-15T02:13:02.333Z,92374.05
2023-03-15T02:18:09.297Z,92381.70
2023-03-15T02:23:19.860Z,92384.47
2023-03-15T02:28:27.265Z,92373.42
2023-03-15T02:33:38.544Z,92387.41
2023-03-15T02:38:45.284Z,92392.66
2023-03-15T02:43:54.833Z,92381.63
2023-03-15T02:49:03.073Z,92400.53
2023-03-15T02:54:09.776Z,92393.63
2023-03-15T02:59:16.465Z,92397.98
2023-03-15T03:04:23.258Z,92406.59
2023-03-15T03:09:29.916Z,92404.44
2023-03-15T03:14:36.630Z,92404.22
2023-03-15T03:19:43.289Z,92423.50
2023-03-15T03:24:49.987Z,92423.46
2023-03-15T03:29:56.770Z,92438.23
2023-03-15T03:35:04.001Z,92441.86
2023-03-15T03:40:12.305Z,92459.20
2023-03-15T03:45:19.036Z,92445.13
2023-03-15T03:50:25.793Z,92461.38
2023-03-15T03:55:34.309Z,92467.36
2023-03-15T04:00:47.282Z,92477.38
2023-03-15T04:05:55.552Z,92478.77
2023-03-15T04:11:03.920Z,92480.05
2023-03-15T04:16:11.053Z,92320.09
2023-03-15T04:21:19.395Z,92478.21
2023-03-15T04:26:26.858Z,92487.43
2023-03-15T04:31:35.215Z,92486.37
2023-03-15T04:36:43.157Z,92473.48
2023-03-15T04:41:49.833Z,92487.69
2023-03-15T04:46:59.684Z,92483.19
2023-03-15T04:52:06.687Z,92487.43
2023-03-15T04:57:13.507Z,92491.65
2023-03-15T05:02:20.473Z,92497.94
2023-03-15T05:07:27.861Z,92501.59
2023-03-15T05:12:34.851Z,92501.33
2023-03-15T05:17:41.529Z,92504.73
2023-03-15T05:22:48.963Z,92518.16
2023-03-15T05:27:57.474Z,92530.29
2023-03-15T05:33:05.685Z,92534.75
2023-03-15T05:38:15.726Z,92537.11
2023-03-15T05:43:23.269Z,92533.95
2023-03-15T05:48:30.207Z,92551.34
2023-03-15T05:53:37.665Z,92563.65
2023-03-15T05:58:44.317Z,92583.63
2023-03-15T06:03:51.319Z,92592.34
2023-03-15T06:08:58.613Z,92592.05
2023-03-15T06:14:05.669Z,92600.73
2023-03-15T06:19:12.353Z,92617.26
2023-03-15T06:24:19.960Z,92620.21
2023-03-15T06:29:28.083Z,92630.49
2023-03-15T06:34:34.752Z,92651.55
2023-03-15T06:39:42.381Z,92660.41
2023-03-15T06:44:51.120Z,92676.27
2023-03-15T06:49:57.494Z,92676.28
2023-03-15T06:55:04.998Z,92673.40
2023-03-15T07:00:13.480Z,92681.55
2023-03-15T07:05:20.733Z,92685.48
2023-03-15T07:10:27.881Z,92694.72
2023-03-15T07:15:34.621Z,92703.66
2023-03-15T07:20:41.674Z,92714.98
2023-03-15T07:25:55.078Z,92723.09
2023-03-15T07:31:03.096Z,92670.13
2023-03-15T07:36:11.219Z,92749.17
2023-03-15T07:41:18.095Z,92760.02
2023-03-15T07:46:25.227Z,92765.80
2023-03-15T07:51:32.531Z,92772.55
2023-03-15T07:56:39.747Z,92783.01
2023-03-15T08:01:46.845Z,92780.84
2023-03-15T08:06:54.115Z,92794.25
2023-03-15T08:12:01.096Z,92787.12
2023-03-15T08:17:10.013Z,92791.61
2023-03-15T08:22:17.091Z,92797.89
2023-03-15T08:27:24.205Z,92797.13
2023-03-15T08:32:31.207Z,92810.26
2023-03-15T08:37:38.485Z,92807.33
2023-03-15T08:42:45.219Z,92814.72
2023-03-15T08:47:53.916Z,92829.91
2023-03-15T08:53:01.173Z,92832.41
2023-03-15T08:58:08.639Z,92843.17
2023-03-15T09:03:16.642Z,92835.70
2023-03-15T09:08:25.207Z,92847.78
2023-03-15T09:13:32.505Z,92853.77
2023-03-15T09:18:41.589Z,92868.00
2023-03-15T09:23:48.851Z,92876.45
2023-03-15T09:28:55.929Z,92884.76
2023-03-15T09:34:02.955Z,92891.69
2023-03-15T09:39:09.978Z,92903.38
2023-03-15T09:44:38.444Z,92901.70
2023-03-15T09:50:06.822Z,92903.68
2023-03-15T09:55:24.403Z,92912.03
2023-03-15T10:00:41.469Z,92924.03
2023-03-15T10:05:55.999Z,92938.95
2023-03-15T10:11:36.809Z,92931.97
2023-03-15T10:16:50.609Z,92957.00
2023-03-15T10:22:22.974Z,92942.13
2023-03-15T10:27:57.691Z,92952.31
2023-03-15T10:33:11.856Z,92950.87
2023-03-15T10:38:22.897Z,92962.84
2023-03-15T10:43:34.851Z,92986.63
2023-03-15T10:48:52.514Z,92986.45
2023-03-15T10:54:18.841Z,92987.75
2023-03-15T10:59:28.943Z,92992.70
2023-03-15T11:04:35.885Z,92835.41
2023-03-15T11:09:47.854Z,92996.86
2023-03-15T11:14:59.234Z,93014.97
2023-03-15T11:20:31.087Z,92989.94
2023-03-15T11:25:38.141Z,93003.16
2023-03-15T11:30:47.910Z,93007.47
2023-03-15T11:35:55.393Z,93009.28
2023-03-15T11:41:05.924Z,93010.35
2023-03-15T11:46:17.113Z,93032.77
2023-03-15T11:51:24.308Z,93017.83
2023-03-15T11:56:47.386Z,93039.85
2023-03-15T12:02:04.573Z,93026.15
2023-03-15T12:07:23.022Z,93041.71
2023-03-15T12:12:34.463Z,93040.07
2023-03-15T12:17:53.505Z,93033.64
2023-03-15T12:23:24.310Z,93036.33
2023-03-15T12:28:37.473Z,93037.22
2023-03-15T12:33:57.835Z,93046.96
2023-03-15T12:39:24.079Z,93036.41
2023-03-15T12:44:41.350Z,93046.02
2023-03-15T12:49:49.178Z,92905.97
2023-03-15T12:55:17.113Z,93049.09
2023-03-15T13:00:30.787Z,93052.23
2023-03-15T13:06:13.372Z,93059.02
2023-03-15T13:11:36.420Z,93047.44
2023-03-15T13:16:59.778Z,93052.23
2023-03-15T13:22:31.979Z,93060.59
2023-03-15T13:27:55.542Z,93068.02
2023-03-15T13:33:12.160Z,93067.36
2023-03-15T13:38:47.403Z,93069.00
2023-03-15T13:43:58.213Z,93074.55
2023-03-15T13:49:05.187Z,93083.67
2023-03-15T13:54:36.125Z,93078.72
2023-03-15T13:59:50.554Z,93090.84
2023-03-15T14:05:07.272Z,93105.72
2023-03-15T14:10:39.275Z,93103.59
2023-03-15T14:15:47.926Z,93114.61
2023-03-15T14:21:14.101Z,93108.58
2023-03-15T14:26:30.968Z,93102.58
2023-03-15T14:31:42.552Z,93113.38
2023-03-15T14:36:49.583Z,93103.87
2023-03-15T14:41:56.496Z,93114.86
2023-03-15T14:47:04.049Z,93108.89
2023-03-15T14:52:12.957Z,93112.85
2023-03-15T14:57:20.035Z,93132.56
2023-03-15T15:02:26.858Z,93129.60
2023-03-15T15:07:33.908Z,93138.34
2023-03-15T15:12:41.684Z,93147.27
2023-03-15T15:17:49.112Z,93150.57
2023-03-15T15:22:57.541Z,93154.59
2023-03-15T15:28:06.138Z,93168.52
2023-03-15T15:33:13.925Z,93167.09
2023-03-15T15:38:20.845Z,93184.08
2023-03-15T15:43:28.091Z,93214.45
2023-03-15T15:48:35.011Z,93192.58
2023-03-15T15:53:41.754Z,93194.92
2023-03-15T15:58:49.639Z,93197.28
2023-03-15T16:03:56.782Z,93212.33
2023-03-15T16:09:03.720Z,93202.84
2023-03-15T16:14:14.566Z,93201.29
2023-03-15T16:19:21.648Z,93204.98
2023-03-15T16:24:36.488Z,93210.75
2023-03-15T16:29:48.618Z,93214.38
2023-03-15T16:34:56.282Z,93228.02
2023-03-15T16:40:05.724Z,93237.36
2023-03-15T16:45:15.715Z,93242.08
2023-03-15T16:50:23.151Z,93256.98
2023-03-15T16:55:35.884Z,93244.14
2023-03-15T17:00:44.102Z,93263.61
2023-03-15T17:05:51.374Z,93277.88
2023-03-15T17:10:58.294Z,93282.79
2023-03-15T17:16:05.045Z,93297.23
2023-03-15T17:21:15.271Z,93297.06
2023-03-15T17:26:25.223Z,93293.98
2023-03-15T17:31:33.544Z,93316.89
2023-03-15T17:36:41.384Z,93326.22
2023-03-15T17:41:49.910Z,93327.54
2023-03-15T17:46:57.116Z,93325.29
2023-03-15T17:52:04.679Z,93321.77
2023-03-15T17:57:14.856Z,93333.45
2023-03-15T18:02:22.109Z,93338.51
2023-03-15T18:07:30.382Z,93336.95
2023-03-15T18:12:37.217Z,93342.48
2023-03-15T18:17:44.289Z,93343.47
2023-03-15T18:22:52.345Z,93353.45
2023-03-15T18:27:59.270Z,93356.47
2023-03-15T18:33:06.318Z,93368.75
2023-03-15T18:38:13.773Z,93359.05
2023-03-15T18:43:20.779Z,93360.42
2023-03-15T18:48:40.093Z,93369.77
2023-03-15T18:53:39.597Z,93371.41
2023-03-15T18:58:48.168Z,93369.20
2023-03-15T19:03:55.996Z,93379.81
2023-03-15T19:09:02.726Z,93385.09
2023-03-15T19:14:11.130Z,93387.53
2023-03-15T19:19:18.032Z,93395.14
2023-03-15T19:24:25.942Z,93392.15
2023-03-15T19:29:32.834Z,93390.10
2023-03-15T19:34:40.718Z,93401.22
2023-03-15T19:39:48.009Z,93386.39
2023-03-15T19:44:55.047Z,93391.63
2023-03-15T19:50:03.038Z,93402.97
2023-03-15T19:55:11.087Z,93418.21
2023-03-15T20:00:20.164Z,93406.63
2023-03-15T20:05:27.709Z,93403.69
2023-03-15T20:10:34.427Z,93408.73
2023-03-15T20:15:41.210Z,93424.64
2023-03-15T20:20:47.868Z,93428.34
2023-03-15T20:25:56.135Z,93431.27
2023-03-15T20:31:08.951Z,93446.45
2023-03-15T20:36:16.989Z,93441.95
2023-03-15T20:41:23.634Z,93441.05
2023-03-15T20:46:31.495Z,93278.45
2023-03-15T20:51:38.652Z,93456.85
2023-03-15T20:56:45.809Z,93463.27
2023-03-15T21:01:53.023Z,93457.19
2023-03-15T21:07:01.608Z,93466.17
2023-03-15T21:12:08.582Z,93464.59
2023-03-15T21:17:15.309Z,93479.20
2023-03-15T21:22:22.455Z,93487.34
2023-03-15T21:27:29.443Z,93489.00
2023-03-15T21:32:36.602Z,93489.63
2023-03-15T21:37:43.643Z,93489.44
2023-03-15T21:42:50.769Z,93478.88
2023-03-15T21:47:57.587Z,93478.91
2023-03-15T21:53:04.472Z,93481.67
2023-03-15T21:58:12.083Z,93492.71
2023-03-15T22:03:19.396Z,93488.22
2023-03-15T22:08:27.104Z,93486.30
2023-03-15T22:13:34.691Z,93489.66
2023-03-15T22:18:41.994Z,93495.81
2023-03-15T22:23:49.063Z,93501.69
2023-03-15T22:28:57.046Z,93509.22
2023-03-15T22:34:04.899Z,93494.13
2023-03-15T22:39:12.929Z,93498.17
2023-03-15T22:44:20.166Z,93505.32
2023-03-15T22:49:27.606Z,93500.89
2023-03-15T22:54:34.521Z,93516.52
2023-03-15T22:59:42.000Z,93526.27
2023-03-15T23:04:49.704Z,93527.58
